Buoy 55952

sailwx.info

Track history (hours):
 
Tides and Currents Weather Stations Pressure Air Temp Water Temp Dewpoint Dewpoint Depression Visibility Wind Speed Wind Dir Waves Ship Positions

Drifting buoy 55952

Last reported at 2017-Oct-17 19:00 UTC. Time now 2017-Oct-17 20:48 UTC.
Position S 29°16' E 162°20'.

Date/timePositionNaut miles runAvg speedWind from/ knotsBaromVisibWave heightAir tempDewpointWater temp
2017-Oct-17 19:00S 29°16' E 162°20'0 0.0
2017-Oct-17 17:00S 29°16' E 162°20'1 0.8
2017-Oct-17 16:00S 29°16' E 162°21'0 0.0
2017-Oct-17 15:00S 29°16' E 162°21'3 1.0
2017-Oct-17 12:00S 29°17' E 162°18'1 0.5
2017-Oct-17 11:00S 29°17' E 162°19'1 0.5
2017-Oct-17 10:00S 29°17' E 162°18'1 0.5
2017-Oct-17 09:00S 29°17' E 162°19'1 0.5
2017-Oct-17 08:00S 29°17' E 162°18'1 0.3
2017-Oct-17 06:00S 29°17' E 162°19'1 0.5
2017-Oct-17 05:00S 29°17' E 162°18'1 0.8
2017-Oct-17 04:00S 29°18' E 162°17'1 0.2
2017-Oct-16 23:00S 29°18' E 162°16'0 0.0
2017-Oct-16 21:00S 29°18' E 162°16'1 0.6
2017-Oct-16 20:00S 29°17' E 162°16'1 0.3
2017-Oct-16 18:00S 29°17' E 162°16'0 0.0
2017-Oct-16 16:00S 29°17' E 162°16'1 0.8
2017-Oct-16 15:00S 29°17' E 162°16'0 0.0
2017-Oct-16 12:00S 29°17' E 162°16'0 0.0
2017-Oct-16 11:00S 29°17' E 162°16'0 0.0
2017-Oct-16 10:00S 29°17' E 162°16'0 0.0
2017-Oct-16 09:00S 29°17' E 162°16'1 0.8
2017-Oct-16 08:00S 29°17' E 162°15'1 0.5
2017-Oct-16 07:00S 29°17' E 162°16'1 0.8
2017-Oct-16 06:00S 29°17' E 162°16'1 1.2
2017-Oct-16 05:00S 29°16' E 162°16'0 0.0
2017-Oct-16 04:00S 29°16' E 162°16'1 0.2
2017-Oct-15 23:00S 29°16' E 162°15'1 0.5
2017-Oct-15 22:00S 29°16' E 162°14'1 0.5
2017-Oct-15 21:00S 29°16' E 162°15'1 0.6
2017-Oct-15 20:00S 29°15' E 162°15'1 0.6
2017-Oct-15 19:00S 29°14' E 162°15'1 0.8
2017-Oct-15 18:00S 29°14' E 162°16'1 0.3
2017-Oct-15 16:00S 29°14' E 162°16'0 0.0
2017-Oct-15 15:00S 29°14' E 162°16'1 0.1
2017-Oct-15 11:00S 29°14' E 162°16'1 0.8
2017-Oct-15 10:00S 29°13' E 162°15'1 0.5
2017-Oct-15 09:00S 29°13' E 162°14'1 0.6
2017-Oct-15 08:00S 29°13' E 162°14'0 0.0
2017-Oct-15 07:00S 29°13' E 162°14'1 1.2
2017-Oct-15 06:00S 29°11' E 162°14'1 0.5
2017-Oct-15 05:00S 29°11' E 162°14'0 0.0
2017-Oct-15 04:00S 29°11' E 162°14'3 0.5
2017-Oct-14 23:00S 29°09' E 162°15'0 0.0
2017-Oct-14 22:00S 29°09' E 162°15'1 0.6
2017-Oct-14 20:00S 29°08' E 162°15'0 0.0
2017-Oct-14 19:00S 29°08' E 162°15'3 2.6
2017-Oct-14 18:00S 29°05' E 162°16'0 0.0
2017-Oct-14 16:00S 29°05' E 162°16'3 0.7
2017-Oct-14 12:00S 29°04' E 162°19'1 0.6
2017-Oct-14 11:00S 29°05' E 162°19'1 0.6
2017-Oct-14 10:00S 29°05' E 162°19'1 0.8
2017-Oct-14 09:00S 29°06' E 162°19'2 1.6
2017-Oct-14 08:00S 29°06' E 162°17'0 0.0
2017-Oct-14 06:00S 29°06' E 162°17'1 1.2
2017-Oct-14 05:00S 29°05' E 162°16'0 0.0
2017-Oct-14 04:00S 29°05' E 162°16'2 2.5
2017-Oct-14 03:00S 29°03' E 162°15'0 0.0
2017-Oct-13 23:00S 29°03' E 162°15'1 0.5
2017-Oct-13 22:00S 29°03' E 162°14'1 0.5
2017-Oct-13 21:00S 29°03' E 162°14'1 0.8
2017-Oct-13 20:00S 29°02' E 162°13'1 0.6
2017-Oct-13 19:00S 29°03' E 162°13'2 0.7
2017-Oct-13 16:00S 29°01' E 162°12'1 1.3
2017-Oct-13 15:00S 29°00' E 162°11'2 0.5
2017-Oct-13 11:00S 28°58' E 162°11'1 0.5
2017-Oct-13 10:00S 28°58' E 162°11'0 0.0
2017-Oct-13 09:00S 28°58' E 162°11'1 0.5
2017-Oct-13 07:00S 28°58' E 162°10'1 0.8
2017-Oct-13 06:00S 28°59' E 162°09'2 1.6
2017-Oct-13 05:00S 28°58' E 162°08'0 0.0
2017-Oct-13 03:00S 28°58' E 162°08'3 0.8
2017-Oct-12 23:00S 28°55' E 162°07'1 0.8
2017-Oct-12 22:00S 28°54' E 162°06'1 0.6
2017-Oct-12 21:00S 28°53' E 162°06'0 0.0
2017-Oct-12 20:00S 28°53' E 162°06'1 0.3
2017-Oct-12 18:00S 28°53' E 162°07'1 0.8
2017-Oct-12 17:00S 28°53' E 162°07'1 0.5
2017-Oct-12 16:00S 28°53' E 162°07'1 0.6
2017-Oct-12 14:00S 28°52' E 162°05'2 0.2
2017-Oct-12 07:00S 28°51' E 162°04'1 0.8
2017-Oct-12 06:00S 28°50' E 162°04'0 0.0
2017-Oct-12 05:00S 28°50' E 162°04'1 0.6
2017-Oct-12 04:00S 28°50' E 162°04'3 0.5
2017-Oct-11 22:00S 28°47' E 162°02'1 0.6
2017-Oct-11 21:00S 28°46' E 162°02'1 1.1
2017-Oct-11 20:00S 28°46' E 162°04'1 0.4
2017-Oct-11 18:00S 28°46' E 162°03'0 0.0
2017-Oct-11 17:00S 28°46' E 162°03'1 0.6
2017-Oct-11 16:00S 28°45' E 162°03'2 0.3
2017-Oct-11 10:00S 28°43' E 162°04'1 0.8
2017-Oct-11 09:00S 28°43' E 162°03'1 0.8
2017-Oct-11 08:00S 28°42' E 162°02'2 1.8
2017-Oct-11 07:00S 28°40' E 162°02'1 0.8
2017-Oct-11 06:00S 28°40' E 162°03'1 1.3
2017-Oct-11 05:00S 28°38' E 162°04'0 0.0
2017-Oct-11 04:00S 28°38' E 162°04'1 0.5
2017-Oct-11 03:00S 28°38' E 162°03'4 1.0
2017-Oct-10 23:00S 28°35' E 162°06'1 0.4
2017-Oct-10 20:00S 28°34' E 162°07'0 0.0
2017-Oct-10 19:00S 28°34' E 162°07'2 1.0
2017-Oct-10 17:00S 28°33' E 162°08'1 0.6
2017-Oct-10 15:00S 28°32' E 162°10'2 0.7
2017-Oct-10 12:00S 28°32' E 162°12'1 0.8
2017-Oct-10 11:00S 28°32' E 162°13'1 0.6
2017-Oct-10 10:00S 28°32' E 162°13'0 0.0
2017-Oct-10 09:00S 28°32' E 162°13'1 0.8
2017-Oct-10 08:00S 28°32' E 162°12'1 0.5
2017-Oct-10 07:00S 28°32' E 162°11'0 0.0
2017-Oct-10 06:00S 28°32' E 162°11'1 1.2
2017-Oct-10 05:00S 28°31' E 162°11'3 3.4
2017-Oct-10 04:00S 28°28' E 162°13'1 0.1
2017-Oct-09 22:00S 28°27' E 162°14'3 1.1
2017-Oct-09 19:00S 28°26' E 162°17'0 0.0
2017-Oct-09 16:00S 28°26' E 162°17'0 0.0
2017-Oct-09 15:00S 28°26' E 162°17'3 0.9
2017-Oct-09 12:00S 28°27' E 162°20'1 0.4
2017-Oct-09 09:00S 28°28' E 162°22'0 0.0
2017-Oct-09 08:00S 28°28' E 162°22'1 0.5
2017-Oct-09 07:00S 28°28' E 162°21'1 0.5
2017-Oct-09 06:00S 28°28' E 162°22'0 0.0
2017-Oct-09 05:00S 28°28' E 162°22'3 3.2
2017-Oct-09 04:00S 28°26' E 162°25'0 0.0
2017-Oct-09 03:00S 28°26' E 162°25'2 0.4
2017-Oct-08 23:00S 28°26' E 162°26'2 0.3
2017-Oct-08 18:00S 28°26' E 162°28'6 0.9
2017-Oct-08 11:00S 28°29' E 162°34'0 0.0
2017-Oct-08 09:00S 28°29' E 162°34'2 2.4
2017-Oct-08 08:00S 28°30' E 162°37'0 0.0
2017-Oct-08 07:00S 28°30' E 162°37'0 0.0
2017-Oct-08 06:00S 28°30' E 162°37'1 0.7
2017-Oct-08 04:00S 28°31' E 162°37'4 0.6
2017-Oct-07 21:00S 28°32' E 162°41'2 2.0
2017-Oct-07 20:00S 28°34' E 162°43'6 5.9
2017-Oct-07 19:00S 28°38' E 162°48'  
Track history (hours):
 
Tides and Currents Weather Stations Pressure Air Temp Water Temp Dewpoint Dewpoint Depression Visibility Wind Speed Wind Dir Waves Ship Positions

Drifting buoy 55952

Last reported at 2017-Oct-17 19:00 UTC. Time now 2017-Oct-17 20:48 UTC.
Position S 29°16' E 162°20'.

Date/timePositionNaut miles runAvg speedWind from/ knotsBaromVisibWave heightAir tempDewpointWater temp
2017-Oct-17 19:00S 29°16' E 162°20'0 0.0
2017-Oct-17 17:00S 29°16' E 162°20'1 0.8
2017-Oct-17 16:00S 29°16' E 162°21'0 0.0
2017-Oct-17 15:00S 29°16' E 162°21'3 1.0
2017-Oct-17 12:00S 29°17' E 162°18'1 0.5
2017-Oct-17 11:00S 29°17' E 162°19'1 0.5
2017-Oct-17 10:00S 29°17' E 162°18'1 0.5
2017-Oct-17 09:00S 29°17' E 162°19'1 0.5
2017-Oct-17 08:00S 29°17' E 162°18'1 0.3
2017-Oct-17 06:00S 29°17' E 162°19'1 0.5
2017-Oct-17 05:00S 29°17' E 162°18'1 0.8
2017-Oct-17 04:00S 29°18' E 162°17'1 0.2
2017-Oct-16 23:00S 29°18' E 162°16'0 0.0
2017-Oct-16 21:00S 29°18' E 162°16'1 0.6
2017-Oct-16 20:00S 29°17' E 162°16'1 0.3
2017-Oct-16 18:00S 29°17' E 162°16'0 0.0
2017-Oct-16 16:00S 29°17' E 162°16'1 0.8
2017-Oct-16 15:00S 29°17' E 162°16'0 0.0
2017-Oct-16 12:00S 29°17' E 162°16'0 0.0
2017-Oct-16 11:00S 29°17' E 162°16'0 0.0
2017-Oct-16 10:00S 29°17' E 162°16'0 0.0
2017-Oct-16 09:00S 29°17' E 162°16'1 0.8
2017-Oct-16 08:00S 29°17' E 162°15'1 0.5
2017-Oct-16 07:00S 29°17' E 162°16'1 0.8
2017-Oct-16 06:00S 29°17' E 162°16'1 1.2
2017-Oct-16 05:00S 29°16' E 162°16'0 0.0
2017-Oct-16 04:00S 29°16' E 162°16'1 0.2
2017-Oct-15 23:00S 29°16' E 162°15'1 0.5
2017-Oct-15 22:00S 29°16' E 162°14'1 0.5
2017-Oct-15 21:00S 29°16' E 162°15'1 0.6
2017-Oct-15 20:00S 29°15' E 162°15'1 0.6
2017-Oct-15 19:00S 29°14' E 162°15'1 0.8
2017-Oct-15 18:00S 29°14' E 162°16'1 0.3
2017-Oct-15 16:00S 29°14' E 162°16'0 0.0
2017-Oct-15 15:00S 29°14' E 162°16'1 0.1
2017-Oct-15 11:00S 29°14' E 162°16'1 0.8
2017-Oct-15 10:00S 29°13' E 162°15'1 0.5
2017-Oct-15 09:00S 29°13' E 162°14'1 0.6
2017-Oct-15 08:00S 29°13' E 162°14'0 0.0
2017-Oct-15 07:00S 29°13' E 162°14'1 1.2
2017-Oct-15 06:00S 29°11' E 162°14'1 0.5
2017-Oct-15 05:00S 29°11' E 162°14'0 0.0
2017-Oct-15 04:00S 29°11' E 162°14'3 0.5
2017-Oct-14 23:00S 29°09' E 162°15'0 0.0
2017-Oct-14 22:00S 29°09' E 162°15'1 0.6
2017-Oct-14 20:00S 29°08' E 162°15'0 0.0
2017-Oct-14 19:00S 29°08' E 162°15'3 2.6
2017-Oct-14 18:00S 29°05' E 162°16'0 0.0
2017-Oct-14 16:00S 29°05' E 162°16'3 0.7
2017-Oct-14 12:00S 29°04' E 162°19'1 0.6
2017-Oct-14 11:00S 29°05' E 162°19'1 0.6
2017-Oct-14 10:00S 29°05' E 162°19'1 0.8
2017-Oct-14 09:00S 29°06' E 162°19'2 1.6
2017-Oct-14 08:00S 29°06' E 162°17'0 0.0
2017-Oct-14 06:00S 29°06' E 162°17'1 1.2
2017-Oct-14 05:00S 29°05' E 162°16'0 0.0
2017-Oct-14 04:00S 29°05' E 162°16'2 2.5
2017-Oct-14 03:00S 29°03' E 162°15'0 0.0
2017-Oct-13 23:00S 29°03' E 162°15'1 0.5
2017-Oct-13 22:00S 29°03' E 162°14'1 0.5
2017-Oct-13 21:00S 29°03' E 162°14'1 0.8
2017-Oct-13 20:00S 29°02' E 162°13'1 0.6
2017-Oct-13 19:00S 29°03' E 162°13'2 0.7
2017-Oct-13 16:00S 29°01' E 162°12'1 1.3
2017-Oct-13 15:00S 29°00' E 162°11'2 0.5
2017-Oct-13 11:00S 28°58' E 162°11'1 0.5
2017-Oct-13 10:00S 28°58' E 162°11'0 0.0
2017-Oct-13 09:00S 28°58' E 162°11'1 0.5
2017-Oct-13 07:00S 28°58' E 162°10'1 0.8
2017-Oct-13 06:00S 28°59' E 162°09'2 1.6
2017-Oct-13 05:00S 28°58' E 162°08'0 0.0
2017-Oct-13 03:00S 28°58' E 162°08'3 0.8
2017-Oct-12 23:00S 28°55' E 162°07'1 0.8
2017-Oct-12 22:00S 28°54' E 162°06'1 0.6
2017-Oct-12 21:00S 28°53' E 162°06'0 0.0
2017-Oct-12 20:00S 28°53' E 162°06'1 0.3
2017-Oct-12 18:00S 28°53' E 162°07'1 0.8
2017-Oct-12 17:00S 28°53' E 162°07'1 0.5
2017-Oct-12 16:00S 28°53' E 162°07'1 0.6
2017-Oct-12 14:00S 28°52' E 162°05'2 0.2
2017-Oct-12 07:00S 28°51' E 162°04'1 0.8
2017-Oct-12 06:00S 28°50' E 162°04'0 0.0
2017-Oct-12 05:00S 28°50' E 162°04'1 0.6
2017-Oct-12 04:00S 28°50' E 162°04'3 0.5
2017-Oct-11 22:00S 28°47' E 162°02'1 0.6
2017-Oct-11 21:00S 28°46' E 162°02'1 1.1
2017-Oct-11 20:00S 28°46' E 162°04'1 0.4
2017-Oct-11 18:00S 28°46' E 162°03'0 0.0
2017-Oct-11 17:00S 28°46' E 162°03'1 0.6
2017-Oct-11 16:00S 28°45' E 162°03'2 0.3
2017-Oct-11 10:00S 28°43' E 162°04'1 0.8
2017-Oct-11 09:00S 28°43' E 162°03'1 0.8
2017-Oct-11 08:00S 28°42' E 162°02'2 1.8
2017-Oct-11 07:00S 28°40' E 162°02'1 0.8
2017-Oct-11 06:00S 28°40' E 162°03'1 1.3
2017-Oct-11 05:00S 28°38' E 162°04'0 0.0
2017-Oct-11 04:00S 28°38' E 162°04'1 0.5
2017-Oct-11 03:00S 28°38' E 162°03'4 1.0
2017-Oct-10 23:00S 28°35' E 162°06'1 0.4
2017-Oct-10 20:00S 28°34' E 162°07'0 0.0
2017-Oct-10 19:00S 28°34' E 162°07'2 1.0
2017-Oct-10 17:00S 28°33' E 162°08'1 0.6
2017-Oct-10 15:00S 28°32' E 162°10'2 0.7
2017-Oct-10 12:00S 28°32' E 162°12'1 0.8
2017-Oct-10 11:00S 28°32' E 162°13'1 0.6
2017-Oct-10 10:00S 28°32' E 162°13'0 0.0
2017-Oct-10 09:00S 28°32' E 162°13'1 0.8
2017-Oct-10 08:00S 28°32' E 162°12'1 0.5
2017-Oct-10 07:00S 28°32' E 162°11'0 0.0
2017-Oct-10 06:00S 28°32' E 162°11'1 1.2
2017-Oct-10 05:00S 28°31' E 162°11'3 3.4
2017-Oct-10 04:00S 28°28' E 162°13'1 0.1
2017-Oct-09 22:00S 28°27' E 162°14'3 1.1
2017-Oct-09 19:00S 28°26' E 162°17'0 0.0
2017-Oct-09 16:00S 28°26' E 162°17'0 0.0
2017-Oct-09 15:00S 28°26' E 162°17'3 0.9
2017-Oct-09 12:00S 28°27' E 162°20'1 0.4
2017-Oct-09 09:00S 28°28' E 162°22'0 0.0
2017-Oct-09 08:00S 28°28' E 162°22'1 0.5
2017-Oct-09 07:00S 28°28' E 162°21'1 0.5
2017-Oct-09 06:00S 28°28' E 162°22'0 0.0
2017-Oct-09 05:00S 28°28' E 162°22'3 3.2
2017-Oct-09 04:00S 28°26' E 162°25'0 0.0
2017-Oct-09 03:00S 28°26' E 162°25'2 0.4
2017-Oct-08 23:00S 28°26' E 162°26'2 0.3
2017-Oct-08 18:00S 28°26' E 162°28'6 0.9
2017-Oct-08 11:00S 28°29' E 162°34'0 0.0
2017-Oct-08 09:00S 28°29' E 162°34'2 2.4
2017-Oct-08 08:00S 28°30' E 162°37'0 0.0
2017-Oct-08 07:00S 28°30' E 162°37'0 0.0
2017-Oct-08 06:00S 28°30' E 162°37'1 0.7
2017-Oct-08 04:00S 28°31' E 162°37'4 0.6
2017-Oct-07 21:00S 28°32' E 162°41'2 2.0
2017-Oct-07 20:00S 28°34' E 162°43'6 5.9
2017-Oct-07 19:00S 28°38' E 162°48'  

Dump ship's entire track history